»·PEaware :: N618DH KVNY-KRAL

N618DH :: KVNY-KRAL

FLIGHT INFORMATION

Flight Status: Arrived
Operator: Privately registered:
United States
More flights under this callsign
Pilot: John R. (32678)
Aircraft: CESSNA 172 SKYHAWK
(C172)
More flights by this aircraft type
Origin: KVNY Van Nuys
United States
Destination: KRAL Riverside Mun
United States
More flights between these airports :: More routes between these airports
Route: ADAMM3 ADAMM V186 PDZ
File this flight plan on PilotEdge
Remarks: KRAL ILS RNY 09
Altitude:
(Current/Filed)
5,000ft
Speed:
(Current/Filed)
115kts
Departed: 13-Jan-21 09:40 AM
Arrived: 13-Jan-21 10:17 AM
Distance/Time
Traveled:
54nm/0:37
Distance/Time
To Go:
Arrived

Flight Plot

Page will automatically refresh every two minutes.

Flight plan parsing failed; only flown route is shown


Map Options




Map Legend


Flown Route
Filed Route
Departure Airport
Arrival Airport
Navaid (VOR, NDB)
Fix

Horizontal Profiles

Position Reports

Time Latitude Longitude Heading Altitude Ground
Speed
13-Jan-21 09:15 34.215501 -118.498360 358 805ft 0kts
13-Jan-21 09:16 34.215501 -118.498360 358 805ft 0kts
13-Jan-21 09:17 34.215501 -118.498360 358 805ft 0kts
13-Jan-21 09:18 34.215501 -118.498360 358 805ft 0kts
13-Jan-21 09:19 34.215501 -118.498360 358 805ft 0kts
13-Jan-21 09:20 34.215501 -118.498360 358 805ft 0kts
13-Jan-21 09:21 34.215501 -118.498360 358 805ft 0kts
13-Jan-21 09:22 34.215501 -118.498360 358 805ft 0kts
13-Jan-21 09:23 34.215501 -118.498360 358 805ft 0kts
13-Jan-21 09:24 34.215501 -118.498360 358 805ft 0kts
13-Jan-21 09:25 34.215668 -118.498362 3 805ft 8kts
13-Jan-21 09:26 34.217477 -118.494815 98 805ft 23kts
13-Jan-21 09:27 34.217222 -118.492938 100 805ft 0kts
13-Jan-21 09:28 34.217454 -118.492295 8 805ft 19kts
13-Jan-21 09:29 34.219288 -118.492445 77 805ft 0kts
13-Jan-21 09:30 34.219288 -118.492445 77 805ft 0kts
13-Jan-21 09:31 34.219288 -118.492445 77 805ft 0kts
13-Jan-21 09:32 34.219288 -118.492445 77 805ft 0kts
13-Jan-21 09:33 34.219288 -118.492445 77 805ft 0kts
13-Jan-21 09:34 34.219288 -118.492445 76 805ft 0kts
13-Jan-21 09:35 34.219288 -118.492445 77 805ft 0kts
13-Jan-21 09:36 34.219288 -118.492445 77 805ft 0kts
13-Jan-21 09:37 34.219288 -118.492445 77 805ft 0kts
13-Jan-21 09:38 34.219288 -118.492445 77 805ft 0kts
13-Jan-21 09:39 34.215203 -118.490894 175 805ft 69kts
13-Jan-21 09:40 34.191082 -118.491389 187 1430ft 89kts
13-Jan-21 09:41 34.173202 -118.477546 126 2123ft 83kts
13-Jan-21 09:42 34.157940 -118.458231 127 2851ft 76kts
13-Jan-21 09:43 34.140915 -118.447326 84 3383ft 78kts
13-Jan-21 09:44 34.138047 -118.419973 93 3931ft 88kts
13-Jan-21 09:45 34.134243 -118.387133 92 4026ft 118kts
13-Jan-21 09:46 34.131311 -118.347465 92 4000ft 118kts
13-Jan-21 09:47 34.128688 -118.307972 92 4000ft 117kts
13-Jan-21 09:48 34.126157 -118.268525 92 4000ft 118kts
13-Jan-21 09:49 34.123718 -118.233664 92 4474ft 89kts
13-Jan-21 09:50 34.121422 -118.207746 91 4996ft 80kts
13-Jan-21 09:51 34.118652 -118.172046 92 4993ft 121kts
13-Jan-21 09:52 34.112472 -118.132376 103 4991ft 121kts
13-Jan-21 09:53 34.101907 -118.093633 106 4991ft 121kts
13-Jan-21 09:54 34.090478 -118.055270 107 4992ft 121kts
13-Jan-21 09:55 34.078812 -118.017063 107 4993ft 121kts
13-Jan-21 09:56 34.067073 -117.978879 107 4993ft 121kts
13-Jan-21 09:57 34.055356 -117.940622 107 4993ft 121kts
13-Jan-21 09:58 34.043734 -117.902506 107 4991ft 118kts
13-Jan-21 09:59 34.032598 -117.866184 107 4991ft 114kts
13-Jan-21 10:00 34.021869 -117.831208 107 4567ft 104kts
13-Jan-21 10:01 34.014305 -117.799061 92 4064ft 96kts
13-Jan-21 10:02 34.012201 -117.767067 91 3566ft 95kts
13-Jan-21 10:03 34.008574 -117.735494 101 3068ft 95kts
13-Jan-21 10:04 34.003165 -117.707901 100 2803ft 81kts
13-Jan-21 10:05 33.997903 -117.680522 100 2510ft 80kts
13-Jan-21 10:06 33.992901 -117.654341 100 2528ft 80kts
13-Jan-21 10:07 33.987383 -117.625411 100 2533ft 101kts
13-Jan-21 10:08 33.980832 -117.591486 100 2531ft 102kts
13-Jan-21 10:10 33.974443 -117.558250 100 2532ft 101kts
13-Jan-21 10:11 33.967987 -117.524853 101 2044ft 97kts
13-Jan-21 10:12 33.962347 -117.495277 100 1826ft 83kts
13-Jan-21 10:13 33.952176 -117.470406 111 1827ft 84kts
13-Jan-21 10:14 33.944280 -117.444512 104 1785ft 79kts
13-Jan-21 10:15 33.941319 -117.421178 11 1350ft 82kts
13-Jan-21 10:16 33.950929 -117.436581 282 819ft 50kts
13-Jan-21 10:17 33.950964 -117.439988 184 819ft 0kts
13-Jan-21 10:18 33.950964 -117.439988 184 819ft 0kts

Navigation Log

Ident Type
Flight plan parsing failed, navigation log unavailable